createdAt,value
2023-01-17T00:01:29.427Z,95624.50
2023-01-17T00:04:15.426Z,95615.38
2023-01-17T00:07:01.177Z,95621.81
2023-01-17T00:09:46.821Z,95612.53
2023-01-17T00:12:13.668Z,95617.34
2023-01-17T00:14:40.315Z,95623.09
2023-01-17T00:17:07.158Z,95606.88
2023-01-17T00:19:52.806Z,95606.91
2023-01-17T00:22:44.454Z,95610.72
2023-01-17T00:25:34.227Z,95609.94
2023-01-17T00:28:01.027Z,95603.56
2023-01-17T00:30:28.845Z,95601.75
2023-01-17T00:32:55.683Z,95605.47
2023-01-17T00:35:22.699Z,95613.66
2023-01-17T00:37:49.887Z,95618.09
2023-01-17T00:40:16.758Z,95622.31
2023-01-17T00:42:43.529Z,95619.47
2023-01-17T00:45:28.722Z,95619.19
2023-01-17T00:48:14.365Z,95610.00
2023-01-17T00:50:59.857Z,95614.53
2023-01-17T00:53:45.300Z,95605.53
2023-01-17T00:56:30.967Z,95616.34
2023-01-17T00:59:16.469Z,95609.78
2023-01-17T01:02:02.103Z,95615.62
2023-01-17T01:04:47.592Z,95610.44
2023-01-17T01:07:33.106Z,95621.13
2023-01-17T01:10:20.892Z,95628.16
2023-01-17T01:13:06.467Z,95631.03
2023-01-17T01:15:52.233Z,95627.56
2023-01-17T01:18:37.977Z,95623.41
2023-01-17T01:21:24.610Z,95633.87
2023-01-17T01:24:10.224Z,95640.09
2023-01-17T01:26:55.806Z,95620.91
2023-01-17T01:29:41.368Z,95617.00
2023-01-17T01:32:27.060Z,95608.94
2023-01-17T01:34:53.953Z,95622.19
2023-01-17T01:37:20.784Z,95617.84
2023-01-17T01:39:48.466Z,95623.53
2023-01-17T01:42:16.029Z,95621.03
2023-01-17T01:44:46.150Z,95621.47
2023-01-17T01:47:19.839Z,95610.63
2023-01-17T01:49:48.798Z,95615.47
2023-01-17T01:52:16.139Z,95609.16
2023-01-17T01:54:54.838Z,95605.88
2023-01-17T01:57:23.886Z,95596.47
2023-01-17T01:59:56.239Z,95597.13
2023-01-17T02:02:23.130Z,95592.81
2023-01-17T02:04:50.368Z,95584.34
2023-01-17T02:07:24.427Z,95591.03
2023-01-17T02:09:51.843Z,95573.13
2023-01-17T02:12:20.362Z,95576.53
2023-01-17T02:14:47.205Z,95577.72
2023-01-17T02:17:30.702Z,95574.09
2023-01-17T02:20:24.995Z,95559.78
2023-01-17T02:23:08.832Z,95559.75
2023-01-17T02:26:11.235Z,95555.88
2023-01-17T02:28:53.196Z,95551.22
2023-01-17T02:31:51.005Z,95549.50
2023-01-17T02:34:25.566Z,95548.03
2023-01-17T02:37:08.520Z,95541.41
2023-01-17T02:39:40.123Z,95537.06
2023-01-17T02:42:11.263Z,95536.47
2023-01-17T02:44:42.237Z,95539.34
2023-01-17T02:47:29.664Z,95542.09
2023-01-17T02:50:06.109Z,95537.59
2023-01-17T02:52:54.903Z,95539.25
2023-01-17T02:55:37.025Z,95529.13
2023-01-17T02:58:23.107Z,95521.56
2023-01-17T03:01:26.839Z,95519.44
2023-01-17T03:04:24.517Z,95522.50
2023-01-17T03:06:56.107Z,95522.09
2023-01-17T03:09:23.137Z,95514.34
2023-01-17T03:11:50.050Z,95518.97
2023-01-17T03:14:16.972Z,95523.56
2023-01-17T03:16:44.471Z,95530.06
2023-01-17T03:19:11.366Z,95525.44
2023-01-17T03:21:38.256Z,95517.28
2023-01-17T03:24:05.284Z,95524.66
2023-01-17T03:26:32.124Z,95527.00
2023-01-17T03:28:58.763Z,95527.25
2023-01-17T03:31:25.758Z,95521.59
2023-01-17T03:33:52.640Z,95526.37
2023-01-17T03:36:20.454Z,95530.12
2023-01-17T03:38:47.330Z,95522.69
2023-01-17T03:41:14.245Z,95532.84
2023-01-17T03:43:41.110Z,95537.81
2023-01-17T03:46:27.599Z,95540.78
2023-01-17T03:48:54.992Z,95536.34
2023-01-17T03:51:21.924Z,95526.37
2023-01-17T03:53:50.100Z,95528.59
2023-01-17T03:56:17.093Z,95538.69
2023-01-17T03:58:44.221Z,95539.06
2023-01-17T04:01:11.608Z,95535.25
2023-01-17T04:03:40.095Z,95530.66
2023-01-17T04:06:07.165Z,95518.81
2023-01-17T04:08:34.091Z,95518.91
2023-01-17T04:11:01.093Z,95519.91
2023-01-17T04:13:27.933Z,95528.94
2023-01-17T04:15:54.595Z,95537.59
2023-01-17T04:18:23.232Z,95539.75
2023-01-17T04:20:51.016Z,95534.63
2023-01-17T04:23:18.328Z,95535.75
2023-01-17T04:25:45.234Z,95545.28
2023-01-17T04:28:12.344Z,95539.41
2023-01-17T04:30:39.265Z,95554.50
2023-01-17T04:33:06.161Z,95557.47
2023-01-17T04:35:33.798Z,95565.87
2023-01-17T04:38:01.007Z,95564.97
2023-01-17T04:40:29.710Z,95559.63
2023-01-17T04:42:59.761Z,95564.31
2023-01-17T04:45:26.732Z,95571.53
2023-01-17T04:47:53.590Z,95569.81
2023-01-17T04:50:20.292Z,95571.00
2023-01-17T04:52:47.151Z,95563.81
2023-01-17T04:55:13.954Z,95565.78
2023-01-17T04:57:40.870Z,95556.81
2023-01-17T05:00:08.636Z,95565.84
2023-01-17T05:02:35.577Z,95575.53
2023-01-17T05:05:02.465Z,95579.00
2023-01-17T05:07:29.173Z,95573.63
2023-01-17T05:09:56.021Z,95582.41
2023-01-17T05:12:22.724Z,95579.91
2023-01-17T05:14:49.558Z,95592.69
2023-01-17T05:17:16.210Z,95595.13
2023-01-17T05:19:43.063Z,95607.91
2023-01-17T05:22:15.369Z,95617.38
2023-01-17T05:24:43.781Z,95622.41
2023-01-17T05:27:11.751Z,95619.69
2023-01-17T05:29:38.956Z,95622.12
2023-01-17T05:32:06.454Z,95633.94
2023-01-17T05:34:33.762Z,95639.56
2023-01-17T05:37:00.646Z,95646.59
2023-01-17T05:39:27.477Z,95653.88
2023-01-17T05:41:54.223Z,95647.84
2023-01-17T05:44:21.096Z,95645.69
2023-01-17T05:46:47.928Z,95656.13
2023-01-17T05:49:14.575Z,95665.41
2023-01-17T05:51:41.455Z,95668.91
2023-01-17T05:54:08.306Z,95677.78
2023-01-17T05:56:34.951Z,95687.87
2023-01-17T05:59:01.823Z,95687.31
2023-01-17T06:01:28.775Z,95695.31
2023-01-17T06:03:55.659Z,95703.22
2023-01-17T06:06:22.587Z,95715.78
2023-01-17T06:08:49.483Z,95724.97
2023-01-17T06:11:16.361Z,95736.09
2023-01-17T06:13:43.195Z,95733.59
2023-01-17T06:16:09.980Z,95735.84
2023-01-17T06:18:36.838Z,95731.28
2023-01-17T06:21:03.632Z,95729.06
2023-01-17T06:23:30.527Z,95736.03
2023-01-17T06:25:57.387Z,95739.06
2023-01-17T06:28:24.646Z,95742.44
2023-01-17T06:30:51.561Z,95744.12
2023-01-17T06:33:18.434Z,95758.00
2023-01-17T06:35:52.710Z,95760.81
2023-01-17T06:38:19.961Z,95765.94
2023-01-17T06:40:47.019Z,95764.47
2023-01-17T06:43:13.928Z,95780.84
2023-01-17T06:45:40.777Z,95775.62
2023-01-17T06:48:07.463Z,95770.06
2023-01-17T06:50:34.684Z,95770.59
2023-01-17T06:53:04.408Z,95761.69
2023-01-17T06:58:37.413Z,95772.16
2023-01-17T07:01:18.554Z,95767.34
2023-01-17T07:03:45.814Z,95786.66
2023-01-17T07:06:12.917Z,95794.34
2023-01-17T07:08:39.883Z,95799.59
2023-01-17T07:11:08.992Z,95815.41
2023-01-17T07:13:38.728Z,95815.09
2023-01-17T07:16:06.362Z,95819.06
2023-01-17T07:18:33.861Z,95823.87
2023-01-17T07:21:01.383Z,95827.47
2023-01-17T07:23:28.269Z,95845.59
2023-01-17T07:25:59.458Z,95844.22
2023-01-17T07:28:27.904Z,95851.72
2023-01-17T07:30:55.850Z,95849.88
2023-01-17T07:33:22.843Z,95850.97
2023-01-17T07:35:49.691Z,95860.81
2023-01-17T07:38:19.050Z,95869.78
2023-01-17T07:44:27.389Z,95868.56
2023-01-17T07:46:54.992Z,95884.13
2023-01-17T07:49:21.852Z,95890.69
2023-01-17T07:51:55.432Z,95883.09
2023-01-17T07:54:22.349Z,95878.31
2023-01-17T07:56:49.180Z,95879.25
2023-01-17T07:59:15.857Z,95878.47
2023-01-17T08:01:42.845Z,95889.88
2023-01-17T08:04:10.027Z,95892.53
2023-01-17T08:06:38.042Z,95889.94
2023-01-17T08:09:04.974Z,95899.91
2023-01-17T08:11:31.855Z,95907.69
2023-01-17T08:13:59.876Z,95910.28
2023-01-17T08:16:28.876Z,95901.53
2023-01-17T08:18:56.650Z,95900.31
2023-01-17T08:21:23.928Z,95903.06
2023-01-17T08:23:51.976Z,95898.81
2023-01-17T08:26:23.360Z,95905.16
2023-01-17T08:29:03.104Z,95908.06
2023-01-17T08:31:31.785Z,95917.16
2023-01-17T08:33:58.742Z,95919.81
2023-01-17T08:36:26.026Z,95926.09
2023-01-17T08:38:53.108Z,95919.16
2023-01-17T08:41:21.102Z,95905.50
2023-01-17T08:43:52.004Z,95901.81
2023-01-17T08:46:19.512Z,95901.37
2023-01-17T08:48:46.613Z,95913.28
2023-01-17T08:51:13.634Z,95916.94
2023-01-17T08:53:40.879Z,95928.09
2023-01-17T08:56:07.992Z,95922.63
2023-01-17T08:58:35.983Z,95916.84
2023-01-17T09:01:04.926Z,95914.47
2023-01-17T09:03:32.667Z,95915.22
2023-01-17T09:06:06.955Z,95916.28
2023-01-17T09:08:34.446Z,95933.16
2023-01-17T09:11:12.404Z,95943.72
2023-01-17T09:13:40.002Z,95953.59
2023-01-17T09:16:07.500Z,95962.19
2023-01-17T09:18:35.551Z,95971.81
2023-01-17T09:21:16.935Z,95974.75
2023-01-17T09:23:44.551Z,95981.28
2023-01-17T09:26:26.138Z,95984.91
2023-01-17T09:28:53.512Z,95974.81
2023-01-17T09:31:21.775Z,95971.00
2023-01-17T09:33:49.558Z,95969.06
2023-01-17T09:36:16.759Z,95968.09
2023-01-17T09:38:43.731Z,95968.78
2023-01-17T09:41:22.207Z,95979.28
2023-01-17T09:44:04.765Z,95978.63
2023-01-17T09:46:37.913Z,95975.66
2023-01-17T09:49:09.311Z,95964.75
2023-01-17T09:51:36.651Z,95964.81
2023-01-17T09:54:03.646Z,95958.84
2023-01-17T09:56:41.626Z,95941.41
2023-01-17T09:59:33.066Z,95940.38
2023-01-17T10:02:30.758Z,95935.78
2023-01-17T10:05:16.440Z,95929.81
2023-01-17T10:08:11.443Z,95916.94
2023-01-17T10:10:43.782Z,95912.59
2023-01-17T10:13:36.770Z,95903.31
2023-01-17T10:16:08.932Z,95895.13
2023-01-17T10:18:56.265Z,95893.19
2023-01-17T10:21:29.988Z,95893.66
2023-01-17T10:24:16.483Z,95891.22
2023-01-17T10:26:47.098Z,95892.69
2023-01-17T10:29:20.190Z,95891.38
2023-01-17T10:31:59.888Z,95880.78
2023-01-17T10:34:42.399Z,95874.03
2023-01-17T10:37:24.799Z,95882.56
2023-01-17T10:39:54.682Z,95884.66
2023-01-17T10:42:41.741Z,95881.31
2023-01-17T10:45:21.622Z,95883.59
2023-01-17T10:47:51.613Z,95874.41
2023-01-17T10:50:19.999Z,95869.03
2023-01-17T10:53:17.501Z,95877.50
2023-01-17T10:55:56.153Z,95868.97
2023-01-17T10:58:22.991Z,95872.75
2023-01-17T11:00:54.234Z,95861.41
2023-01-17T11:03:21.443Z,95867.19
2023-01-17T11:06:23.631Z,95857.44
2023-01-17T11:08:58.699Z,95864.63
2023-01-17T11:11:32.066Z,95863.78
2023-01-17T11:14:01.175Z,95864.44
2023-01-17T11:16:31.546Z,95867.75
2023-01-17T11:19:26.813Z,95870.34
2023-01-17T11:21:57.779Z,95874.81
2023-01-17T11:24:35.476Z,95876.50
2023-01-17T11:27:04.879Z,95864.28
2023-01-17T11:29:37.985Z,95855.28
2023-01-17T11:32:32.371Z,95860.50
2023-01-17T11:35:17.612Z,95864.72
2023-01-17T11:37:50.257Z,95869.16
2023-01-17T11:40:30.322Z,95861.87
2023-01-17T11:43:22.056Z,95851.09
2023-01-17T11:46:17.983Z,95852.25
2023-01-17T11:48:56.468Z,95851.81
2023-01-17T11:51:30.311Z,95856.47
2023-01-17T11:54:22.087Z,95851.47
2023-01-17T11:56:50.686Z,95844.47
2023-01-17T11:59:30.506Z,95834.66
2023-01-17T12:02:34.960Z,95822.84
2023-01-17T12:05:21.262Z,95817.25
2023-01-17T12:08:09.633Z,95814.22
2023-01-17T12:10:55.089Z,95803.88
2023-01-17T12:14:03.176Z,95794.72
2023-01-17T12:16:57.945Z,95799.00
2023-01-17T12:19:34.795Z,95797.25
2023-01-17T12:22:10.698Z,95797.56
2023-01-17T12:25:07.169Z,95804.25
2023-01-17T12:27:51.601Z,95802.69
2023-01-17T12:30:48.971Z,95809.75
2023-01-17T12:33:45.846Z,95793.75
2023-01-17T12:36:26.986Z,95799.84
2023-01-17T12:38:53.835Z,95800.09
2023-01-17T12:41:31.580Z,95802.03
2023-01-17T12:44:00.274Z,95803.25
2023-01-17T12:46:38.711Z,95799.56
2023-01-17T12:49:28.930Z,95794.31
2023-01-17T12:52:05.651Z,95791.41
2023-01-17T12:54:41.734Z,95783.47
2023-01-17T12:57:45.268Z,95782.41
2023-01-17T13:00:23.418Z,95771.34
2023-01-17T13:03:02.310Z,95776.63
2023-01-17T13:05:41.932Z,95766.59
2023-01-17T13:08:34.524Z,95771.53
2023-01-17T13:11:28.047Z,95773.63
2023-01-17T13:13:57.639Z,95763.84
2023-01-17T13:16:35.409Z,95742.25
2023-01-17T13:19:15.276Z,95738.97
2023-01-17T13:21:42.716Z,95724.44
2023-01-17T13:24:21.101Z,95714.62
2023-01-17T13:26:50.978Z,95704.34
2023-01-17T13:29:30.138Z,95704.34
2023-01-17T13:32:11.091Z,95695.28
2023-01-17T13:34:44.559Z,95678.34
2023-01-17T13:37:34.410Z,95679.28
2023-01-17T13:40:32.109Z,95674.38
2023-01-17T13:43:06.443Z,95676.66
2023-01-17T13:45:35.749Z,95669.28
2023-01-17T13:48:18.392Z,95668.78
2023-01-17T13:50:46.139Z,95672.03
2023-01-17T13:53:39.373Z,95669.09
2023-01-17T13:56:27.796Z,95667.19
2023-01-17T13:59:02.872Z,95667.41
2023-01-17T14:01:34.811Z,95659.03
2023-01-17T14:04:04.843Z,95655.25
2023-01-17T14:06:36.543Z,95650.72
2023-01-17T14:09:14.300Z,95648.03
2023-01-17T14:12:18.686Z,95645.50
2023-01-17T14:14:48.833Z,95649.91
2023-01-17T14:17:25.921Z,95638.56
2023-01-17T14:19:54.976Z,95640.19
2023-01-17T14:22:21.723Z,95632.00
2023-01-17T14:25:09.922Z,95629.41
2023-01-17T14:27:48.752Z,95620.97
2023-01-17T14:30:28.611Z,95615.78
2023-01-17T14:33:04.808Z,95618.31
2023-01-17T14:35:37.292Z,95608.06
2023-01-17T14:38:15.691Z,95604.28
2023-01-17T14:40:51.888Z,95603.66
2023-01-17T14:43:24.241Z,95596.31
2023-01-17T14:45:58.829Z,95585.31
2023-01-17T14:48:26.064Z,95590.69
2023-01-17T14:50:54.644Z,95594.50
2023-01-17T14:53:28.326Z,95603.47
2023-01-17T14:56:11.607Z,95597.50
2023-01-17T14:58:39.427Z,95597.25
2023-01-17T15:01:20.309Z,95605.34
2023-01-17T15:03:53.633Z,95598.56
2023-01-17T15:06:25.824Z,95593.13
2023-01-17T15:08:54.283Z,95599.44
2023-01-17T15:11:26.767Z,95594.81
2023-01-17T15:13:57.551Z,95593.41
2023-01-17T15:16:27.356Z,95594.25
2023-01-17T15:18:55.179Z,95601.69
2023-01-17T15:21:28.765Z,95590.09
2023-01-17T15:23:59.683Z,95597.59
2023-01-17T15:26:33.617Z,95585.38
2023-01-17T15:29:05.179Z,95577.41
2023-01-17T15:31:47.475Z,95577.25
2023-01-17T15:34:30.104Z,95561.41
2023-01-17T15:37:08.150Z,95566.09
2023-01-17T15:39:36.921Z,95560.53
2023-01-17T15:42:06.885Z,95551.13
2023-01-17T15:44:48.519Z,95548.25
2023-01-17T15:47:32.644Z,95551.50
2023-01-17T15:50:00.851Z,95530.34
2023-01-17T15:52:28.609Z,95535.81
2023-01-17T15:55:11.415Z,95525.13
2023-01-17T15:57:39.030Z,95525.66
2023-01-17T16:00:19.849Z,95510.22
2023-01-17T16:02:47.345Z,95512.09
2023-01-17T16:05:23.924Z,95519.34
2023-01-17T16:07:58.221Z,95497.22
2023-01-17T16:10:28.887Z,95506.53
2023-01-17T16:12:56.416Z,95506.59
2023-01-17T16:15:24.048Z,95507.59
2023-01-17T16:17:56.896Z,95516.53
2023-01-17T16:20:26.674Z,95506.97
2023-01-17T16:22:53.688Z,95511.09
2023-01-17T16:25:22.443Z,95504.66
2023-01-17T16:27:50.246Z,95500.81
2023-01-17T16:30:19.705Z,95498.22
2023-01-17T16:32:50.776Z,95493.44
2023-01-17T16:35:22.289Z,95497.78
2023-01-17T16:37:54.280Z,95483.69
2023-01-17T16:40:23.650Z,95488.75
2023-01-17T16:42:50.711Z,95484.84
2023-01-17T16:45:18.074Z,95491.44
2023-01-17T16:47:46.674Z,95481.91
2023-01-17T16:50:16.247Z,95484.34
2023-01-17T16:52:43.109Z,95488.69
2023-01-17T16:55:12.356Z,95474.97
2023-01-17T16:57:39.441Z,95472.50
2023-01-17T17:00:07.953Z,95481.75
2023-01-17T17:02:35.074Z,95480.53
2023-01-17T17:05:01.919Z,95487.00
2023-01-17T17:07:28.613Z,95476.81
2023-01-17T17:09:55.505Z,95487.44
2023-01-17T17:12:22.369Z,95480.84
2023-01-17T17:14:49.266Z,95483.94
2023-01-17T17:17:16.112Z,95489.63
2023-01-17T17:19:42.951Z,95471.88
2023-01-17T17:22:09.798Z,95472.38
2023-01-17T17:24:36.455Z,95464.00
2023-01-17T17:27:03.336Z,95478.69
2023-01-17T17:29:30.209Z,95470.84
2023-01-17T17:31:57.093Z,95478.72
2023-01-17T17:34:25.800Z,95473.16
2023-01-17T17:36:52.952Z,95467.19
2023-01-17T17:39:19.836Z,95450.47
2023-01-17T17:41:47.414Z,95433.75
2023-01-17T17:44:14.442Z,95416.88
2023-01-17T17:46:42.506Z,95405.28
2023-01-17T17:49:09.563Z,95394.62
2023-01-17T17:51:38.475Z,95387.34
2023-01-17T17:54:10.234Z,95385.53
2023-01-17T17:56:37.954Z,95383.22
2023-01-17T17:59:06.327Z,95379.66
2023-01-17T18:01:33.682Z,95382.84
2023-01-17T18:04:04.759Z,95373.31
2023-01-17T18:06:31.621Z,95364.00
2023-01-17T18:08:58.253Z,95359.03
2023-01-17T18:11:26.821Z,95359.75
2023-01-17T18:13:56.327Z,95361.13
2023-01-17T18:16:37.509Z,95367.53
2023-01-17T18:19:05.015Z,95362.66
2023-01-17T18:21:34.554Z,95349.41
2023-01-17T18:24:05.977Z,95355.00
2023-01-17T18:26:35.662Z,95355.53
2023-01-17T18:29:04.088Z,95342.97
2023-01-17T18:31:31.506Z,95342.09
2023-01-17T18:34:00.470Z,95348.59
2023-01-17T18:36:30.833Z,95331.41
2023-01-17T18:38:58.014Z,95337.97
2023-01-17T18:41:27.250Z,95322.09
2023-01-17T18:43:56.180Z,95307.59
2023-01-17T18:46:23.660Z,95306.03
2023-01-17T18:48:51.450Z,95301.75
2023-01-17T18:51:19.635Z,95286.59
2023-01-17T18:53:46.935Z,95282.97
2023-01-17T18:56:18.870Z,95268.47
2023-01-17T18:58:47.258Z,95260.41
2023-01-17T19:01:19.839Z,95262.31
2023-01-17T19:03:48.105Z,95255.06
2023-01-17T19:06:26.419Z,95241.25
2023-01-17T19:08:53.522Z,95230.97
2023-01-17T19:11:22.089Z,95227.88
2023-01-17T19:13:50.405Z,95210.03
2023-01-17T19:16:24.580Z,95203.12
2023-01-17T19:18:52.669Z,95190.03
2023-01-17T19:21:22.758Z,95174.78
2023-01-17T19:23:50.681Z,95152.03
2023-01-17T19:26:20.064Z,95134.59
2023-01-17T19:28:48.394Z,95117.25
2023-01-17T19:31:18.018Z,95092.16
2023-01-17T19:33:47.063Z,95100.72
2023-01-17T19:36:19.629Z,95103.38
2023-01-17T19:39:03.020Z,95121.97
2023-01-17T19:41:30.876Z,95133.00
2023-01-17T19:44:02.498Z,95110.69
2023-01-17T19:46:30.093Z,95123.66
2023-01-17T19:48:57.891Z,95129.59
2023-01-17T19:51:25.429Z,95131.69
2023-01-17T19:53:53.785Z,95138.22
2023-01-17T19:56:23.779Z,95146.37
2023-01-17T19:58:51.036Z,95145.72
2023-01-17T20:01:24.793Z,95147.84
2023-01-17T20:03:52.458Z,95153.97
2023-01-17T20:06:21.313Z,95160.53
2023-01-17T20:08:48.196Z,95158.41
2023-01-17T20:11:19.313Z,95155.75
2023-01-17T20:13:47.220Z,95142.28
2023-01-17T20:16:15.641Z,95130.37
2023-01-17T20:18:42.892Z,95110.91
2023-01-17T20:21:15.200Z,95110.19
2023-01-17T20:23:43.765Z,95097.38
2023-01-17T20:26:11.503Z,95092.22
2023-01-17T20:28:40.569Z,95088.25
2023-01-17T20:31:09.667Z,95097.31
2023-01-17T20:33:36.810Z,95081.31
2023-01-17T20:36:10.427Z,95075.31
2023-01-17T20:38:45.412Z,95092.09
2023-01-17T20:41:21.428Z,95090.16
2023-01-17T20:43:53.032Z,95089.06
2023-01-17T20:46:22.011Z,95093.16
2023-01-17T20:48:50.967Z,95076.38
2023-01-17T20:51:18.821Z,95082.03
2023-01-17T20:53:46.991Z,95088.25
2023-01-17T20:56:15.517Z,95092.94
2023-01-17T20:58:42.835Z,95097.38
2023-01-17T21:01:11.375Z,95105.00
2023-01-17T21:03:39.427Z,95100.09
2023-01-17T21:06:08.783Z,95111.44
2023-01-17T21:08:38.244Z,95111.75
2023-01-17T21:11:06.038Z,95107.16
2023-01-17T21:13:33.096Z,95100.56
2023-01-17T21:15:59.994Z,95098.59
2023-01-17T21:18:28.281Z,95079.22
2023-01-17T21:20:55.160Z,95061.78
2023-01-17T21:23:26.444Z,95062.47
2023-01-17T21:25:55.685Z,95058.19
2023-01-17T21:28:24.326Z,95068.59
2023-01-17T21:30:51.774Z,95061.63
2023-01-17T21:33:19.897Z,95056.16
2023-01-17T21:35:47.036Z,95048.81
2023-01-17T21:38:14.521Z,95055.47
2023-01-17T21:40:42.507Z,95073.16
2023-01-17T21:43:09.807Z,95090.56
2023-01-17T21:45:37.590Z,95085.31
2023-01-17T21:48:04.974Z,95085.63
2023-01-17T21:50:33.498Z,95080.16
2023-01-17T21:53:01.134Z,95071.75
2023-01-17T21:55:46.758Z,95062.87
2023-01-17T21:58:33.707Z,95068.03
2023-01-17T22:01:30.572Z,95086.47
2023-01-17T22:03:59.756Z,95097.38
2023-01-17T22:06:28.738Z,95108.09
2023-01-17T22:08:56.293Z,95096.81
2023-01-17T22:11:24.903Z,95086.13
2023-01-17T22:13:52.282Z,95092.16
2023-01-17T22:16:24.331Z,95095.56
2023-01-17T22:18:52.017Z,95097.09
2023-01-17T22:21:20.941Z,95109.97
2023-01-17T22:23:55.654Z,95092.97
2023-01-17T22:26:25.038Z,95078.06
2023-01-17T22:28:53.196Z,95077.50
2023-01-17T22:31:24.752Z,95082.69
2023-01-17T22:33:56.790Z,95089.91
2023-01-17T22:36:23.880Z,95107.56
2023-01-17T22:38:50.842Z,95107.56
2023-01-17T22:41:22.019Z,95115.53
2023-01-17T22:43:52.866Z,95110.06
2023-01-17T22:46:22.510Z,95109.03
2023-01-17T22:48:49.722Z,95119.78
2023-01-17T22:51:17.981Z,95120.25
2023-01-17T22:53:53.130Z,95117.78
2023-01-17T22:56:23.131Z,95130.19
2023-01-17T22:58:50.386Z,95119.31
2023-01-17T23:01:24.220Z,95118.22
2023-01-17T23:03:59.364Z,95115.72
2023-01-17T23:06:29.597Z,95110.81
2023-01-17T23:08:58.571Z,95112.44
2023-01-17T23:11:39.199Z,95109.22
2023-01-17T23:14:13.345Z,95104.25
2023-01-17T23:17:01.135Z,95098.75
2023-01-17T23:19:30.136Z,95073.12
2023-01-17T23:22:20.313Z,95088.44
2023-01-17T23:25:01.064Z,95096.19
2023-01-17T23:27:53.516Z,95099.50
2023-01-17T23:30:25.882Z,95101.94
2023-01-17T23:32:55.726Z,95090.84
2023-01-17T23:35:25.464Z,95056.22
2023-01-17T23:38:10.820Z,95041.31
2023-01-17T23:40:38.676Z,95036.34
2023-01-17T23:43:24.113Z,95062.87
2023-01-17T23:45:52.375Z,95067.09
2023-01-17T23:48:19.606Z,95088.00
2023-01-17T23:50:47.768Z,95082.88
2023-01-17T23:53:22.586Z,95123.31
2023-01-17T23:55:57.211Z,95133.50
2023-01-17T23:58:26.572Z,95140.91
